| time (UTC) | temp F | wind direction | speed MPH | gust MPH | rain 1hr in | rain 24hr in | rain mn in | humidity % | barometer mb |
| 20260904151522 | 89 | 77 | 2.0 | 7.0 | 0.00 | 0.00 | 0.00 | 54 | 1009.2 |
| 20260904150018 | 88 | 286 | 4.0 | 8.0 | 0.00 | 0.00 | 0.00 | 55 | 1009.1 |
| 20260904144514 | 88 | 108 | 2.0 | 7.0 | 0.00 | 0.00 | 0.00 | 56 | 1009.1 |
| 20260904143010 | 87 | 87 | 3.0 | 7.0 | 0.00 | 0.00 | 0.00 | 58 | 1009.0 |
| 20260904141501 | 86 | 112 | 1.0 | 4.0 | 0.00 | 0.00 | 0.00 | 59 | 1008.8 |
| 20260904134553 | 0 | 0.0 | 0.0 | 0.00 | 0.00 | 0.00 | 1008.5 | ||
| 20260904133048 | 0 | 0.0 | 0.0 | 0.00 | 0.00 | 0.00 | 1008.2 | ||
| 20260904131541 | 0 | 0.0 | 0.0 | 0.00 | 0.00 | 0.00 | 1008.0 | ||
| 20260904130038 | 0 | 0.0 | 0.0 | 0.00 | 0.00 | 0.00 | 1007.8 | ||
| 20260904124532 | 0 | 0.0 | 0.0 | 0.00 | 0.00 | 0.00 | 1007.6 | ||
| 20260904123028 | 0 | 0.0 | 0.0 | 0.00 | 0.00 | 0.00 | 1007.5 | ||
| 20260904121522 | 0 | 0.0 | 0.0 | 0.00 | 0.00 | 0.00 | 1007.4 | ||
| 20260904120020 | 0 | 0.0 | 0.0 | 0.00 | 0.00 | 0.00 | 1007.3 | ||
| 20260904114513 | 0 | 0.0 | 0.0 | 0.00 | 0.00 | 0.00 | 1007.3 | ||
| 20260904113008 | 0 | 0.0 | 0.0 | 0.00 | 0.00 | 0.00 | 1007.3 | ||
| 20260904111502 | 0 | 0.0 | 0.0 | 0.00 | 0.00 | 0.00 | 1007.3 | ||
| 20260904110058 | 0 | 0.0 | 0.0 | 0.00 | 0.00 | 0.00 | 1007.2 | ||
| 20260904104554 | 0 | 0.0 | 0.0 | 0.00 | 0.00 | 0.00 | 1007.1 | ||
| 20260904103059 | 83 | 90 | 0.0 | 0.0 | 0.00 | 0.00 | 0.00 | 58 | 1006.9 |
| 20260904101545 | 84 | 96 | 0.0 | 2.0 | 0.00 | 0.00 | 0.00 | 58 | 1006.9 |
| 20260904100046 | 85 | 109 | 0.0 | 5.0 | 0.00 | 0.00 | 0.00 | 58 | 1006.7 |
| 20260904094544 | 85 | 113 | 1.0 | 3.0 | 0.00 | 0.00 | 0.00 | 58 | 1006.7 |
| 20260904093057 | 85 | 91 | 0.0 | 2.0 | 0.00 | 0.00 | 0.00 | 57 | 1006.7 |
| 20260904091541 | 85 | 115 | 0.0 | 2.0 | 0.00 | 0.00 | 0.00 | 56 | 1006.6 |
| 20260904090040 | 85 | 98 | 0.0 | 3.0 | 0.00 | 0.00 | 0.00 | 55 | 1006.7 |
| 20260904084538 | 86 | 86 | 2.0 | 5.0 | 0.00 | 0.00 | 0.00 | 55 | 1006.7 |
| 20260904084536 | 86 | 76 | 2.0 | 5.0 | 0.00 | 0.00 | 0.00 | 55 | 1006.7 |
| 20260904083037 | 86 | 96 | 1.0 | 8.0 | 0.00 | 0.00 | 0.00 | 54 | 1006.7 |
| 20260904081533 | 86 | 109 | 0.0 | 3.0 | 0.00 | 0.00 | 0.00 | 54 | 1006.9 |
| 20260904080002 | 87 | 88 | 0.0 | 5.0 | 0.00 | 0.00 | 0.00 | 53 | 1006.8 |
| 20260904074500 | 87 | 84 | 0.0 | 5.0 | 0.00 | 0.00 | 0.00 | 53 | 1006.8 |
| 20260904073100 | 87 | 146 | 0.0 | 6.0 | 0.00 | 0.00 | 0.00 | 52 | 1006.7 |
| 20260904071559 | 88 | 255 | 0.0 | 5.0 | 0.00 | 0.00 | 0.00 | 51 | 1006.6 |
| 20260904070053 | 88 | 81 | 0.0 | 3.0 | 0.00 | 0.00 | 0.00 | 51 | 1006.6 |
| 20260904064551 | 88 | 189 | 1.0 | 6.0 | 0.00 | 0.00 | 0.00 | 50 | 1006.4 |
| 20260904063050 | 89 | 117 | 2.0 | 6.0 | 0.00 | 0.00 | 0.00 | 49 | 1006.2 |
| 20260904061544 | 89 | 134 | 1.0 | 6.0 | 0.00 | 0.00 | 0.00 | 48 | 1006.1 |
| 20260904060041 | 90 | 96 | 0.0 | 5.0 | 0.00 | 0.00 | 0.00 | 48 | 1006.0 |
| 20260904054540 | 90 | 117 | 0.0 | 6.0 | 0.00 | 0.00 | 0.00 | 45 | 1006.0 |
| 20260904053037 | 90 | 131 | 0.0 | 4.0 | 0.00 | 0.00 | 0.00 | 44 | 1005.9 |
| 20260904051535 | 90 | 133 | 0.0 | 1.0 | 0.00 | 0.00 | 0.00 | 43 | 1005.9 |
| 20260904050032 | 90 | 153 | 1.0 | 4.0 | 0.00 | 0.00 | 0.00 | 43 | 1005.8 |
| 20260904044530 | 90 | 121 | 0.0 | 0.0 | 0.00 | 0.00 | 0.00 | 42 | 1005.8 |
| 20260904043024 | 91 | 216 | 0.0 | 2.0 | 0.00 | 0.00 | 0.00 | 42 | 1005.8 |
| 20260904041521 | 91 | 150 | 0.0 | 2.0 | 0.00 | 0.00 | 0.00 | 42 | 1005.7 |
| 20260904040018 | 91 | 179 | 0.0 | 5.0 | 0.00 | 0.00 | 0.00 | 42 | 1005.4 |
| 20260904034522 | 91 | 117 | 0.0 | 2.0 | 0.00 | 0.00 | 0.00 | 41 | 1005.1 |
| 20260904033100 | 91 | 134 | 0.0 | 2.0 | 0.00 | 0.00 | 0.00 | 41 | 1004.8 |
| 20260904031546 | 91 | 84 | 0.0 | 1.0 | 0.00 | 0.00 | 0.00 | 42 | 1004.7 |
| 20260904030043 | 91 | 101 | 0.0 | 5.0 | 0.00 | 0.00 | 0.00 | 42 | 1004.5 |
| 20260904024543 | 91 | 83 | 0.0 | 7.0 | 0.00 | 0.00 | 0.00 | 42 | 1004.4 |
| 20260904023041 | 91 | 126 | 2.0 | 7.0 | 0.00 | 0.00 | 0.00 | 42 | 1004.3 |
| 20260904021540 | 91 | 89 | 2.0 | 8.0 | 0.00 | 0.00 | 0.00 | 42 | 1004.2 |
| 20260904020009 | 92 | 86 | 2.0 | 9.0 | 0.00 | 0.00 | 0.00 | 42 | 1004.4 |
| 20260904014504 | 93 | 124 | 3.0 | 11.0 | 0.00 | 0.00 | 0.00 | 40 | 1004.3 |
| 20260904013108 | 95 | 228 | 3.0 | 12.0 | 0.00 | 0.00 | 0.00 | 36 | 1004.1 |
| 20260904011605 | 97 | 281 | 2.0 | 7.0 | 0.00 | 0.00 | 0.00 | 32 | 1003.9 |
| 20260904010059 | 99 | 245 | 0.0 | 3.0 | 0.00 | 0.00 | 0.00 | 31 | 1003.8 |
| 20260904004553 | 100 | 224 | 0.0 | 1.0 | 0.00 | 0.00 | 0.00 | 30 | 1003.9 |
| 20260904003057 | 100 | 231 | 1.0 | 5.0 | 0.00 | 0.00 | 0.00 | 29 | 1003.9 |
| 20260904001549 | 100 | 69 | 1.0 | 7.0 | 0.00 | 0.00 | 0.00 | 29 | 1003.9 |
| 20260904000047 | 100 | 100 | 0.0 | 5.0 | 0.00 | 0.00 | 0.00 | 29 | 1004.0 |
| 20260903234545 | 100 | 224 | 1.0 | 4.0 | 0.00 | 0.00 | 0.00 | 30 | 1004.1 |
| 20260903233013 | 100 | 113 | 0.0 | 3.0 | 0.00 | 0.00 | 0.00 | 29 | 1004.2 |
| 20260903231512 | 99 | 108 | 0.0 | 4.0 | 0.00 | 0.00 | 0.00 | 30 | 1004.3 |
| 20260903230016 | 99 | 333 | 2.0 | 5.0 | 0.00 | 0.00 | 0.00 | 30 | 1004.6 |
| 20260903224506 | 101 | 118 | 1.0 | 6.0 | 0.00 | 0.00 | 0.00 | 30 | 1004.7 |
| 20260903223006 | 99 | 323 | 0.0 | 5.0 | 0.00 | 0.00 | 0.00 | 32 | 1004.9 |
| 20260903221502 | 100 | 143 | 0.0 | 5.0 | 0.00 | 0.00 | 0.00 | 29 | 1005.0 |
| 20260903220105 | 101 | 127 | 0.0 | 4.0 | 0.00 | 0.00 | 0.00 | 29 | 1005.4 |
| 20260903214552 | 101 | 264 | 3.0 | 7.0 | 0.00 | 0.00 | 0.00 | 29 | 1005.6 |
| 20260903213053 | 101 | 272 | 0.0 | 5.0 | 0.00 | 0.00 | 0.00 | 29 | 1005.8 |
| 20260903211547 | 101 | 270 | 0.0 | 5.0 | 0.00 | 0.00 | 0.00 | 28 | 1006.0 |
| 20260903210042 | 101 | 255 | 1.0 | 0.0 | 0.00 | 0.00 | 0.00 | 29 | 1006.4 |
| 20260903204541 | 101 | 112 | 1.0 | 6.0 | 0.00 | 0.00 | 0.00 | 28 | 1006.6 |
| 20260903203038 | 101 | 127 | 1.0 | 4.0 | 0.00 | 0.00 | 0.00 | 29 | 1006.8 |
| 20260903201536 | 100 | 104 | 1.0 | 6.0 | 0.00 | 0.00 | 0.00 | 30 | 1006.9 |
| 20260903200033 | 99 | 243 | 0.0 | 4.0 | 0.00 | 0.00 | 0.00 | 31 | 1007.2 |
| 20260903194527 | 98 | 237 | 1.0 | 7.0 | 0.00 | 0.00 | 0.00 | 32 | 1007.2 |
| 20260903193024 | 98 | 96 | 2.0 | 7.0 | 0.00 | 0.00 | 0.00 | 31 | 1007.6 |
| 20260903193021 | 98 | 101 | 2.0 | 7.0 | 0.00 | 0.00 | 0.00 | 31 | 1007.6 |
| 20260903191518 | 98 | 290 | 1.0 | 5.0 | 0.00 | 0.00 | 0.00 | 32 | 1007.8 |
| 20260903190014 | 98 | 98 | 0.0 | 9.0 | 0.00 | 0.00 | 0.00 | 32 | 1008.0 |
| 20260903184508 | 97 | 110 | 2.0 | 6.0 | 0.00 | 0.00 | 0.00 | 31 | 1008.3 |
| 20260903183003 | 97 | 69 | 1.0 | 6.0 | 0.00 | 0.00 | 0.00 | 33 | 1008.6 |
| 20260903181606 | 96 | 94 | 2.0 | 6.0 | 0.00 | 0.00 | 0.00 | 37 | 1008.7 |
| 20260903180104 | 95 | 82 | 2.0 | 6.0 | 0.00 | 0.00 | 0.00 | 37 | 1009.0 |
| 20260903174557 | 96 | 129 | 0.0 | 6.0 | 0.00 | 0.00 | 0.00 | 38 | 1009.2 |
| 20260903173102 | 95 | 117 | 1.0 | 4.0 | 0.00 | 0.00 | 0.00 | 40 | 1009.3 |
| 20260903171554 | 94 | 256 | 1.0 | 8.0 | 0.00 | 0.00 | 0.00 | 42 | 1009.3 |
| 20260903170159 | 93 | 108 | 2.0 | 6.0 | 0.00 | 0.00 | 0.00 | 43 | 1009.3 |
| 20260903164555 | 93 | 118 | 2.0 | 5.0 | 0.00 | 0.00 | 0.00 | 43 | 1009.4 |
| 20260903163049 | 93 | 103 | 1.0 | 4.0 | 0.00 | 0.00 | 0.00 | 44 | 1009.4 |
| 20260903161603 | 93 | 223 | 1.0 | 5.0 | 0.00 | 0.00 | 0.00 | 45 | 1009.5 |
| 20260903160050 | 92 | 121 | 0.0 | 3.0 | 0.00 | 0.00 | 0.00 | 46 | 1009.6 |
| 20260903154553 | 92 | 102 | 0.0 | 2.0 | 0.00 | 0.00 | 0.00 | 46 | 1009.6 |
| 20260903153045 | 90 | 153 | 0.0 | 3.0 | 0.00 | 0.00 | 0.00 | 49 | 1009.7 |